sensor_id;sensor_type;location;lat;lon;timestamp;P1;durP1;ratioP1;P2;durP2;ratioP2
8187;SDS011;4135;49.184;9.722;2022-10-16T00:01:51;0.80;;;0.45;;
8187;SDS011;4135;49.184;9.722;2022-10-16T00:04:21;1.15;;;0.38;;
8187;SDS011;4135;49.184;9.722;2022-10-16T00:06:50;1.00;;;0.38;;
8187;SDS011;4135;49.184;9.722;2022-10-16T00:09:20;0.43;;;0.38;;
8187;SDS011;4135;49.184;9.722;2022-10-16T00:11:49;2.05;;;0.50;;
8187;SDS011;4135;49.184;9.722;2022-10-16T00:14:19;1.02;;;0.40;;
8187;SDS011;4135;49.184;9.722;2022-10-16T00:16:48;1.38;;;0.60;;
8187;SDS011;4135;49.184;9.722;2022-10-16T00:19:18;0.25;;;0.20;;
8187;SDS011;4135;49.184;9.722;2022-10-16T00:21:47;0.95;;;0.40;;
8187;SDS011;4135;49.184;9.722;2022-10-16T00:24:17;1.25;;;0.25;;
8187;SDS011;4135;49.184;9.722;2022-10-16T00:26:49;2.15;;;0.30;;
8187;SDS011;4135;49.184;9.722;2022-10-16T00:29:18;0.40;;;0.35;;
8187;SDS011;4135;49.184;9.722;2022-10-16T00:31:48;0.60;;;0.30;;
8187;SDS011;4135;49.184;9.722;2022-10-16T00:34:17;0.82;;;0.43;;
8187;SDS011;4135;49.184;9.722;2022-10-16T00:36:47;1.15;;;0.50;;
8187;SDS011;4135;49.184;9.722;2022-10-16T00:39:16;1.02;;;0.20;;
8187;SDS011;4135;49.184;9.722;2022-10-16T00:41:46;0.03;;;0.00;;
8187;SDS011;4135;49.184;9.722;2022-10-16T00:47:29;0.50;;;0.40;;
8187;SDS011;4135;49.184;9.722;2022-10-16T00:50:07;0.30;;;0.20;;
8187;SDS011;4135;49.184;9.722;2022-10-16T00:52:41;0.52;;;0.40;;
8187;SDS011;4135;49.184;9.722;2022-10-16T00:55:15;0.63;;;0.45;;
8187;SDS011;4135;49.184;9.722;2022-10-16T00:57:45;0.95;;;0.38;;
8187;SDS011;4135;49.184;9.722;2022-10-16T01:00:17;0.13;;;0.10;;
8187;SDS011;4135;49.184;9.722;2022-10-16T01:02:57;0.47;;;0.17;;
8187;SDS011;4135;49.184;9.722;2022-10-16T01:05:33;0.52;;;0.20;;
8187;SDS011;4135;49.184;9.722;2022-10-16T01:08:13;0.40;;;0.10;;
8187;SDS011;4135;49.184;9.722;2022-10-16T01:11:01;2.30;;;0.20;;
8187;SDS011;4135;49.184;9.722;2022-10-16T01:13:44;0.50;;;0.15;;
8187;SDS011;4135;49.184;9.722;2022-10-16T01:16:20;1.65;;;0.63;;
8187;SDS011;4135;49.184;9.722;2022-10-16T01:19:01;1.95;;;0.40;;
8187;SDS011;4135;49.184;9.722;2022-10-16T01:21:47;1.60;;;0.50;;
8187;SDS011;4135;49.184;9.722;2022-10-16T01:24:39;0.73;;;0.30;;
8187;SDS011;4135;49.184;9.722;2022-10-16T01:27:25;0.98;;;0.20;;
8187;SDS011;4135;49.184;9.722;2022-10-16T01:30:10;0.47;;;0.40;;
8187;SDS011;4135;49.184;9.722;2022-10-16T01:32:57;0.60;;;0.40;;
8187;SDS011;4135;49.184;9.722;2022-10-16T01:35:38;1.05;;;0.40;;
8187;SDS011;4135;49.184;9.722;2022-10-16T01:38:13;1.10;;;0.40;;
8187;SDS011;4135;49.184;9.722;2022-10-16T01:40:51;0.40;;;0.30;;
8187;SDS011;4135;49.184;9.722;2022-10-16T01:43:31;0.90;;;0.43;;
8187;SDS011;4135;49.184;9.722;2022-10-16T01:46:05;0.70;;;0.32;;
8187;SDS011;4135;49.184;9.722;2022-10-16T01:48:36;0.32;;;0.20;;
8187;SDS011;4135;49.184;9.722;2022-10-16T01:51:08;0.85;;;0.30;;
8187;SDS011;4135;49.184;9.722;2022-10-16T01:53:41;0.88;;;0.25;;
8187;SDS011;4135;49.184;9.722;2022-10-16T01:56:15;0.57;;;0.30;;
8187;SDS011;4135;49.184;9.722;2022-10-16T01:58:51;0.30;;;0.25;;
8187;SDS011;4135;49.184;9.722;2022-10-16T02:01:24;0.32;;;0.20;;
8187;SDS011;4135;49.184;9.722;2022-10-16T02:03:56;0.82;;;0.30;;
8187;SDS011;4135;49.184;9.722;2022-10-16T02:06:28;0.40;;;0.25;;
8187;SDS011;4135;49.184;9.722;2022-10-16T02:08:59;0.50;;;0.30;;
8187;SDS011;4135;49.184;9.722;2022-10-16T02:11:28;0.55;;;0.30;;
8187;SDS011;4135;49.184;9.722;2022-10-16T02:14:00;0.50;;;0.22;;
8187;SDS011;4135;49.184;9.722;2022-10-16T02:16:37;0.60;;;0.20;;
8187;SDS011;4135;49.184;9.722;2022-10-16T02:19:12;0.93;;;0.30;;
8187;SDS011;4135;49.184;9.722;2022-10-16T02:21:46;0.85;;;0.20;;
8187;SDS011;4135;49.184;9.722;2022-10-16T02:27:11;0.20;;;0.20;;
8187;SDS011;4135;49.184;9.722;2022-10-16T02:29:53;1.25;;;0.60;;
8187;SDS011;4135;49.184;9.722;2022-10-16T02:32:29;0.20;;;0.17;;
8187;SDS011;4135;49.184;9.722;2022-10-16T02:35:02;0.45;;;0.22;;
8187;SDS011;4135;49.184;9.722;2022-10-16T02:37:32;3.85;;;0.43;;
8187;SDS011;4135;49.184;9.722;2022-10-16T02:40:02;0.30;;;0.20;;
8187;SDS011;4135;49.184;9.722;2022-10-16T02:42:35;0.95;;;0.57;;
8187;SDS011;4135;49.184;9.722;2022-10-16T02:45:06;1.58;;;0.17;;
8187;SDS011;4135;49.184;9.722;2022-10-16T02:47:37;0.13;;;0.10;;
8187;SDS011;4135;49.184;9.722;2022-10-16T02:50:07;0.40;;;0.20;;
8187;SDS011;4135;49.184;9.722;2022-10-16T02:52:36;0.75;;;0.45;;
8187;SDS011;4135;49.184;9.722;2022-10-16T02:55:06;1.33;;;0.15;;
8187;SDS011;4135;49.184;9.722;2022-10-16T02:57:36;0.75;;;0.30;;
8187;SDS011;4135;49.184;9.722;2022-10-16T03:00:06;0.50;;;0.38;;
8187;SDS011;4135;49.184;9.722;2022-10-16T03:02:38;0.65;;;0.30;;
8187;SDS011;4135;49.184;9.722;2022-10-16T03:05:08;0.60;;;0.10;;
8187;SDS011;4135;49.184;9.722;2022-10-16T03:07:38;0.63;;;0.30;;
8187;SDS011;4135;49.184;9.722;2022-10-16T03:10:08;0.35;;;0.10;;
8187;SDS011;4135;49.184;9.722;2022-10-16T03:12:37;0.25;;;0.17;;
8187;SDS011;4135;49.184;9.722;2022-10-16T03:15:07;3.95;;;0.75;;
8187;SDS011;4135;49.184;9.722;2022-10-16T03:17:37;3.00;;;0.30;;
8187;SDS011;4135;49.184;9.722;2022-10-16T03:20:06;0.20;;;0.20;;
8187;SDS011;4135;49.184;9.722;2022-10-16T03:22:36;1.02;;;0.25;;
8187;SDS011;4135;49.184;9.722;2022-10-16T03:25:06;0.70;;;0.30;;
8187;SDS011;4135;49.184;9.722;2022-10-16T03:27:36;0.93;;;0.40;;
8187;SDS011;4135;49.184;9.722;2022-10-16T03:30:05;0.47;;;0.20;;
8187;SDS011;4135;49.184;9.722;2022-10-16T03:32:35;0.40;;;0.25;;
8187;SDS011;4135;49.184;9.722;2022-10-16T03:35:05;0.60;;;0.55;;
8187;SDS011;4135;49.184;9.722;2022-10-16T03:37:35;0.28;;;0.15;;
8187;SDS011;4135;49.184;9.722;2022-10-16T03:40:05;1.48;;;0.40;;
8187;SDS011;4135;49.184;9.722;2022-10-16T03:42:35;0.25;;;0.17;;
8187;SDS011;4135;49.184;9.722;2022-10-16T03:45:04;1.00;;;0.20;;
8187;SDS011;4135;49.184;9.722;2022-10-16T03:47:34;0.50;;;0.20;;
8187;SDS011;4135;49.184;9.722;2022-10-16T03:50:04;0.82;;;0.30;;
8187;SDS011;4135;49.184;9.722;2022-10-16T03:52:34;1.17;;;0.40;;
8187;SDS011;4135;49.184;9.722;2022-10-16T03:55:03;3.70;;;0.57;;
8187;SDS011;4135;49.184;9.722;2022-10-16T03:57:33;0.70;;;0.45;;
8187;SDS011;4135;49.184;9.722;2022-10-16T04:00:03;1.05;;;0.35;;
8187;SDS011;4135;49.184;9.722;2022-10-16T04:02:33;0.77;;;0.50;;
8187;SDS011;4135;49.184;9.722;2022-10-16T04:05:02;1.38;;;0.30;;
8187;SDS011;4135;49.184;9.722;2022-10-16T04:07:32;0.85;;;0.30;;
8187;SDS011;4135;49.184;9.722;2022-10-16T04:10:02;0.32;;;0.30;;
8187;SDS011;4135;49.184;9.722;2022-10-16T04:12:32;0.40;;;0.20;;
8187;SDS011;4135;49.184;9.722;2022-10-16T04:15:02;0.22;;;0.17;;
8187;SDS011;4135;49.184;9.722;2022-10-16T04:17:31;0.30;;;0.20;;
8187;SDS011;4135;49.184;9.722;2022-10-16T04:20:01;0.43;;;0.20;;
8187;SDS011;4135;49.184;9.722;2022-10-16T04:22:31;0.90;;;0.55;;
8187;SDS011;4135;49.184;9.722;2022-10-16T04:25:00;0.73;;;0.43;;
8187;SDS011;4135;49.184;9.722;2022-10-16T04:27:30;1.38;;;0.50;;
8187;SDS011;4135;49.184;9.722;2022-10-16T04:30:00;0.45;;;0.38;;
8187;SDS011;4135;49.184;9.722;2022-10-16T04:32:30;0.43;;;0.30;;
8187;SDS011;4135;49.184;9.722;2022-10-16T04:34:59;0.50;;;0.28;;
8187;SDS011;4135;49.184;9.722;2022-10-16T04:37:29;0.45;;;0.30;;
8187;SDS011;4135;49.184;9.722;2022-10-16T04:39:58;0.60;;;0.28;;
8187;SDS011;4135;49.184;9.722;2022-10-16T04:42:28;0.70;;;0.40;;
8187;SDS011;4135;49.184;9.722;2022-10-16T04:44:57;0.63;;;0.30;;
8187;SDS011;4135;49.184;9.722;2022-10-16T04:47:27;0.15;;;0.10;;
8187;SDS011;4135;49.184;9.722;2022-10-16T04:49:56;0.90;;;0.35;;
8187;SDS011;4135;49.184;9.722;2022-10-16T04:52:26;0.93;;;0.32;;
8187;SDS011;4135;49.184;9.722;2022-10-16T04:54:55;0.40;;;0.40;;
8187;SDS011;4135;49.184;9.722;2022-10-16T04:57:29;0.98;;;0.28;;
8187;SDS011;4135;49.184;9.722;2022-10-16T04:59:59;0.98;;;0.40;;
8187;SDS011;4135;49.184;9.722;2022-10-16T05:02:29;0.70;;;0.35;;
8187;SDS011;4135;49.184;9.722;2022-10-16T05:04:58;0.73;;;0.43;;
8187;SDS011;4135;49.184;9.722;2022-10-16T05:07:28;1.05;;;0.50;;
8187;SDS011;4135;49.184;9.722;2022-10-16T05:09:57;1.70;;;0.30;;
8187;SDS011;4135;49.184;9.722;2022-10-16T05:12:27;0.35;;;0.30;;
8187;SDS011;4135;49.184;9.722;2022-10-16T05:14:56;0.47;;;0.20;;
8187;SDS011;4135;49.184;9.722;2022-10-16T05:17:27;0.50;;;0.30;;
8187;SDS011;4135;49.184;9.722;2022-10-16T05:19:56;0.50;;;0.20;;
8187;SDS011;4135;49.184;9.722;2022-10-16T05:22:26;0.63;;;0.20;;
8187;SDS011;4135;49.184;9.722;2022-10-16T05:24:55;0.20;;;0.20;;
8187;SDS011;4135;49.184;9.722;2022-10-16T05:27:25;0.40;;;0.38;;
8187;SDS011;4135;49.184;9.722;2022-10-16T05:29:54;2.55;;;0.40;;
8187;SDS011;4135;49.184;9.722;2022-10-16T05:32:24;1.42;;;0.30;;
8187;SDS011;4135;49.184;9.722;2022-10-16T05:34:54;0.55;;;0.30;;
8187;SDS011;4135;49.184;9.722;2022-10-16T05:37:23;0.20;;;0.17;;
8187;SDS011;4135;49.184;9.722;2022-10-16T05:39:53;0.80;;;0.43;;
8187;SDS011;4135;49.184;9.722;2022-10-16T05:42:22;0.55;;;0.30;;
8187;SDS011;4135;49.184;9.722;2022-10-16T05:44:52;0.55;;;0.35;;
8187;SDS011;4135;49.184;9.722;2022-10-16T05:47:21;0.65;;;0.25;;
8187;SDS011;4135;49.184;9.722;2022-10-16T05:49:51;0.32;;;0.22;;
8187;SDS011;4135;49.184;9.722;2022-10-16T05:52:21;0.57;;;0.40;;
8187;SDS011;4135;49.184;9.722;2022-10-16T05:54:50;0.60;;;0.30;;
8187;SDS011;4135;49.184;9.722;2022-10-16T05:57:20;0.40;;;0.30;;
8187;SDS011;4135;49.184;9.722;2022-10-16T05:59:49;1.00;;;0.40;;
8187;SDS011;4135;49.184;9.722;2022-10-16T06:02:19;0.77;;;0.32;;
8187;SDS011;4135;49.184;9.722;2022-10-16T06:04:48;0.73;;;0.30;;
8187;SDS011;4135;49.184;9.722;2022-10-16T06:07:20;1.33;;;0.38;;
8187;SDS011;4135;49.184;9.722;2022-10-16T06:09:50;1.33;;;0.52;;
8187;SDS011;4135;49.184;9.722;2022-10-16T06:12:21;0.35;;;0.28;;
8187;SDS011;4135;49.184;9.722;2022-10-16T06:14:50;0.63;;;0.30;;
8187;SDS011;4135;49.184;9.722;2022-10-16T06:17:20;0.68;;;0.32;;
8187;SDS011;4135;49.184;9.722;2022-10-16T06:19:49;0.43;;;0.30;;
8187;SDS011;4135;49.184;9.722;2022-10-16T06:22:19;0.85;;;0.30;;
8187;SDS011;4135;49.184;9.722;2022-10-16T06:24:49;0.93;;;0.30;;
8187;SDS011;4135;49.184;9.722;2022-10-16T06:27:18;0.65;;;0.20;;
8187;SDS011;4135;49.184;9.722;2022-10-16T06:29:48;2.35;;;0.32;;
8187;SDS011;4135;49.184;9.722;2022-10-16T06:32:17;0.60;;;0.20;;
8187;SDS011;4135;49.184;9.722;2022-10-16T06:34:47;0.47;;;0.28;;
8187;SDS011;4135;49.184;9.722;2022-10-16T06:37:16;0.45;;;0.30;;
8187;SDS011;4135;49.184;9.722;2022-10-16T06:39:46;0.32;;;0.30;;
8187;SDS011;4135;49.184;9.722;2022-10-16T06:42:15;0.22;;;0.20;;
8187;SDS011;4135;49.184;9.722;2022-10-16T06:44:45;0.73;;;0.35;;
8187;SDS011;4135;49.184;9.722;2022-10-16T06:47:14;1.23;;;0.28;;
8187;SDS011;4135;49.184;9.722;2022-10-16T06:49:44;0.57;;;0.50;;
8187;SDS011;4135;49.184;9.722;2022-10-16T06:52:13;0.40;;;0.30;;
8187;SDS011;4135;49.184;9.722;2022-10-16T06:54:43;0.50;;;0.30;;
8187;SDS011;4135;49.184;9.722;2022-10-16T06:57:12;0.63;;;0.40;;
8187;SDS011;4135;49.184;9.722;2022-10-16T06:59:42;0.20;;;0.20;;
8187;SDS011;4135;49.184;9.722;2022-10-16T07:02:11;0.30;;;0.20;;
8187;SDS011;4135;49.184;9.722;2022-10-16T07:04:41;0.38;;;0.17;;
8187;SDS011;4135;49.184;9.722;2022-10-16T07:07:10;0.20;;;0.10;;
8187;SDS011;4135;49.184;9.722;2022-10-16T07:09:40;0.40;;;0.30;;
8187;SDS011;4135;49.184;9.722;2022-10-16T07:12:09;0.47;;;0.30;;
8187;SDS011;4135;49.184;9.722;2022-10-16T07:14:39;0.35;;;0.20;;
8187;SDS011;4135;49.184;9.722;2022-10-16T07:17:08;0.47;;;0.32;;
8187;SDS011;4135;49.184;9.722;2022-10-16T07:19:38;0.55;;;0.32;;
8187;SDS011;4135;49.184;9.722;2022-10-16T07:22:08;0.30;;;0.20;;
8187;SDS011;4135;49.184;9.722;2022-10-16T07:24:37;0.15;;;0.10;;
8187;SDS011;4135;49.184;9.722;2022-10-16T07:27:07;0.80;;;0.20;;
8187;SDS011;4135;49.184;9.722;2022-10-16T07:29:36;0.82;;;0.32;;
8187;SDS011;4135;49.184;9.722;2022-10-16T07:32:06;0.30;;;0.10;;
8187;SDS011;4135;49.184;9.722;2022-10-16T07:34:35;0.47;;;0.10;;
8187;SDS011;4135;49.184;9.722;2022-10-16T07:37:05;0.10;;;0.10;;
8187;SDS011;4135;49.184;9.722;2022-10-16T07:39:34;0.15;;;0.10;;
8187;SDS011;4135;49.184;9.722;2022-10-16T07:42:04;0.50;;;0.28;;
8187;SDS011;4135;49.184;9.722;2022-10-16T07:44:33;0.40;;;0.13;;
8187;SDS011;4135;49.184;9.722;2022-10-16T07:47:03;0.45;;;0.10;;
8187;SDS011;4135;49.184;9.722;2022-10-16T07:49:32;1.75;;;0.40;;
8187;SDS011;4135;49.184;9.722;2022-10-16T07:52:02;0.40;;;0.30;;
8187;SDS011;4135;49.184;9.722;2022-10-16T07:54:32;0.30;;;0.03;;
8187;SDS011;4135;49.184;9.722;2022-10-16T07:57:01;0.20;;;0.17;;
8187;SDS011;4135;49.184;9.722;2022-10-16T07:59:31;0.55;;;0.20;;
8187;SDS011;4135;49.184;9.722;2022-10-16T08:02:00;0.40;;;0.13;;
8187;SDS011;4135;49.184;9.722;2022-10-16T08:04:30;0.28;;;0.10;;
8187;SDS011;4135;49.184;9.722;2022-10-16T08:06:59;0.25;;;0.17;;
8187;SDS011;4135;49.184;9.722;2022-10-16T08:09:29;0.30;;;0.20;;
8187;SDS011;4135;49.184;9.722;2022-10-16T08:11:58;0.35;;;0.17;;
8187;SDS011;4135;49.184;9.722;2022-10-16T08:14:28;1.42;;;0.30;;
8187;SDS011;4135;49.184;9.722;2022-10-16T08:16:57;1.45;;;0.40;;
8187;SDS011;4135;49.184;9.722;2022-10-16T08:19:27;0.68;;;0.20;;
8187;SDS011;4135;49.184;9.722;2022-10-16T08:21:57;1.25;;;0.40;;
8187;SDS011;4135;49.184;9.722;2022-10-16T08:24:26;0.40;;;0.10;;
8187;SDS011;4135;49.184;9.722;2022-10-16T08:26:56;0.40;;;0.22;;
8187;SDS011;4135;49.184;9.722;2022-10-16T08:29:25;0.80;;;0.32;;
8187;SDS011;4135;49.184;9.722;2022-10-16T08:31:55;0.43;;;0.15;;
8187;SDS011;4135;49.184;9.722;2022-10-16T08:34:24;0.28;;;0.10;;
8187;SDS011;4135;49.184;9.722;2022-10-16T08:36:54;0.20;;;0.20;;
8187;SDS011;4135;49.184;9.722;2022-10-16T08:39:24;0.57;;;0.22;;
8187;SDS011;4135;49.184;9.722;2022-10-16T08:42:00;0.65;;;0.28;;
8187;SDS011;4135;49.184;9.722;2022-10-16T08:44:46;0.10;;;0.10;;
8187;SDS011;4135;49.184;9.722;2022-10-16T08:47:48;0.50;;;0.40;;
8187;SDS011;4135;49.184;9.722;2022-10-16T08:50:35;2.40;;;0.30;;
8187;SDS011;4135;49.184;9.722;2022-10-16T08:53:09;0.47;;;0.20;;
8187;SDS011;4135;49.184;9.722;2022-10-16T08:55:51;0.40;;;0.20;;
8187;SDS011;4135;49.184;9.722;2022-10-16T08:58:23;0.38;;;0.25;;
8187;SDS011;4135;49.184;9.722;2022-10-16T09:00:58;0.57;;;0.40;;
8187;SDS011;4135;49.184;9.722;2022-10-16T09:03:48;0.43;;;0.32;;
8187;SDS011;4135;49.184;9.722;2022-10-16T09:12:09;1.10;;;0.47;;
8187;SDS011;4135;49.184;9.722;2022-10-16T09:20:28;0.30;;;0.20;;
8187;SDS011;4135;49.184;9.722;2022-10-16T09:25:59;0.30;;;0.22;;
8187;SDS011;4135;49.184;9.722;2022-10-16T09:28:29;0.68;;;0.20;;
8187;SDS011;4135;49.184;9.722;2022-10-16T09:30:58;0.82;;;0.30;;
8187;SDS011;4135;49.184;9.722;2022-10-16T09:33:29;1.13;;;0.40;;
8187;SDS011;4135;49.184;9.722;2022-10-16T09:36:04;0.10;;;0.10;;
8187;SDS011;4135;49.184;9.722;2022-10-16T09:38:36;0.75;;;0.28;;
8187;SDS011;4135;49.184;9.722;2022-10-16T09:41:13;0.22;;;0.20;;
8187;SDS011;4135;49.184;9.722;2022-10-16T09:46:29;0.60;;;0.28;;
8187;SDS011;4135;49.184;9.722;2022-10-16T09:49:03;0.30;;;0.20;;
8187;SDS011;4135;49.184;9.722;2022-10-16T09:51:47;0.75;;;0.38;;
8187;SDS011;4135;49.184;9.722;2022-10-16T09:54:17;1.05;;;0.40;;
8187;SDS011;4135;49.184;9.722;2022-10-16T09:56:48;1.15;;;0.40;;
8187;SDS011;4135;49.184;9.722;2022-10-16T09:59:21;1.25;;;0.50;;
8187;SDS011;4135;49.184;9.722;2022-10-16T10:01:56;0.70;;;0.43;;
8187;SDS011;4135;49.184;9.722;2022-10-16T10:04:39;1.73;;;0.45;;
8187;SDS011;4135;49.184;9.722;2022-10-16T10:07:23;0.32;;;0.30;;
8187;SDS011;4135;49.184;9.722;2022-10-16T10:09:56;0.80;;;0.40;;
8187;SDS011;4135;49.184;9.722;2022-10-16T10:12:30;1.02;;;0.40;;
8187;SDS011;4135;49.184;9.722;2022-10-16T10:15:05;1.27;;;0.43;;
8187;SDS011;4135;49.184;9.722;2022-10-16T10:17:53;13.48;;;0.65;;
8187;SDS011;4135;49.184;9.722;2022-10-16T10:20:26;0.55;;;0.30;;
8187;SDS011;4135;49.184;9.722;2022-10-16T10:22:56;0.30;;;0.20;;
8187;SDS011;4135;49.184;9.722;2022-10-16T10:25:41;0.70;;;0.45;;
8187;SDS011;4135;49.184;9.722;2022-10-16T10:31:39;0.38;;;0.25;;
8187;SDS011;4135;49.184;9.722;2022-10-16T10:37:28;1.25;;;0.60;;
8187;SDS011;4135;49.184;9.722;2022-10-16T10:46:09;0.70;;;0.28;;
8187;SDS011;4135;49.184;9.722;2022-10-16T10:54:14;0.70;;;0.40;;
8187;SDS011;4135;49.184;9.722;2022-10-16T10:56:57;0.82;;;0.43;;
8187;SDS011;4135;49.184;9.722;2022-10-16T11:07:49;0.40;;;0.30;;
8187;SDS011;4135;49.184;9.722;2022-10-16T11:10:48;1.17;;;0.40;;
8187;SDS011;4135;49.184;9.722;2022-10-16T11:13:46;0.65;;;0.40;;
8187;SDS011;4135;49.184;9.722;2022-10-16T11:16:32;0.30;;;0.20;;
8187;SDS011;4135;49.184;9.722;2022-10-16T11:24:50;0.50;;;0.40;;
8187;SDS011;4135;49.184;9.722;2022-10-16T11:27:34;0.28;;;0.20;;
8187;SDS011;4135;49.184;9.722;2022-10-16T11:30:12;1.20;;;0.50;;
8187;SDS011;4135;49.184;9.722;2022-10-16T11:32:50;0.60;;;0.32;;
8187;SDS011;4135;49.184;9.722;2022-10-16T11:35:24;0.63;;;0.35;;
8187;SDS011;4135;49.184;9.722;2022-10-16T11:38:02;0.60;;;0.40;;
8187;SDS011;4135;49.184;9.722;2022-10-16T11:40:40;0.47;;;0.43;;
8187;SDS011;4135;49.184;9.722;2022-10-16T11:43:17;1.52;;;0.30;;
8187;SDS011;4135;49.184;9.722;2022-10-16T11:45:52;0.98;;;0.30;;
8187;SDS011;4135;49.184;9.722;2022-10-16T11:48:28;0.82;;;0.40;;
8187;SDS011;4135;49.184;9.722;2022-10-16T11:54:21;0.28;;;0.22;;
8187;SDS011;4135;49.184;9.722;2022-10-16T11:57:13;1.17;;;0.20;;
8187;SDS011;4135;49.184;9.722;2022-10-16T11:59:57;0.75;;;0.20;;
8187;SDS011;4135;49.184;9.722;2022-10-16T12:02:37;0.88;;;0.50;;
8187;SDS011;4135;49.184;9.722;2022-10-16T12:05:22;0.57;;;0.43;;
8187;SDS011;4135;49.184;9.722;2022-10-16T12:10:37;0.65;;;0.43;;
8187;SDS011;4135;49.184;9.722;2022-10-16T12:18:43;0.65;;;0.40;;
8187;SDS011;4135;49.184;9.722;2022-10-16T12:21:14;0.93;;;0.40;;
8187;SDS011;4135;49.184;9.722;2022-10-16T12:23:51;0.95;;;0.30;;
8187;SDS011;4135;49.184;9.722;2022-10-16T12:26:24;5.25;;;0.20;;
8187;SDS011;4135;49.184;9.722;2022-10-16T12:28:55;2.17;;;0.45;;
8187;SDS011;4135;49.184;9.722;2022-10-16T12:31:44;0.85;;;0.40;;
8187;SDS011;4135;49.184;9.722;2022-10-16T12:34:27;0.73;;;0.38;;
8187;SDS011;4135;49.184;9.722;2022-10-16T12:37:35;0.47;;;0.43;;
8187;SDS011;4135;49.184;9.722;2022-10-16T12:43:24;0.60;;;0.38;;
8187;SDS011;4135;49.184;9.722;2022-10-16T12:48:43;2.83;;;0.20;;
8187;SDS011;4135;49.184;9.722;2022-10-16T12:51:24;0.30;;;0.25;;
8187;SDS011;4135;49.184;9.722;2022-10-16T12:54:13;0.20;;;0.20;;
8187;SDS011;4135;49.184;9.722;2022-10-16T12:56:51;0.40;;;0.30;;
8187;SDS011;4135;49.184;9.722;2022-10-16T12:59:30;0.77;;;0.35;;
8187;SDS011;4135;49.184;9.722;2022-10-16T13:14:46;6.43;;;1.23;;
8187;SDS011;4135;49.184;9.722;2022-10-16T13:20:41;8.60;;;1.55;;
8187;SDS011;4135;49.184;9.722;2022-10-16T13:23:15;2.47;;;1.08;;
8187;SDS011;4135;49.184;9.722;2022-10-16T13:26:04;2.40;;;0.95;;
8187;SDS011;4135;49.184;9.722;2022-10-16T13:28:36;6.05;;;1.60;;
8187;SDS011;4135;49.184;9.722;2022-10-16T13:31:13;4.78;;;1.40;;
8187;SDS011;4135;49.184;9.722;2022-10-16T13:33:47;5.63;;;1.55;;
8187;SDS011;4135;49.184;9.722;2022-10-16T13:36:22;4.20;;;1.00;;
8187;SDS011;4135;49.184;9.722;2022-10-16T13:39:13;2.95;;;1.23;;
8187;SDS011;4135;49.184;9.722;2022-10-16T13:42:02;1.30;;;0.60;;
8187;SDS011;4135;49.184;9.722;2022-10-16T13:44:36;3.72;;;1.08;;
8187;SDS011;4135;49.184;9.722;2022-10-16T13:47:31;2.25;;;0.73;;
8187;SDS011;4135;49.184;9.722;2022-10-16T13:50:06;3.20;;;0.88;;
8187;SDS011;4135;49.184;9.722;2022-10-16T13:52:40;2.17;;;1.00;;
8187;SDS011;4135;49.184;9.722;2022-10-16T13:55:14;3.50;;;1.02;;
8187;SDS011;4135;49.184;9.722;2022-10-16T13:57:45;5.57;;;1.15;;
8187;SDS011;4135;49.184;9.722;2022-10-16T14:02:55;2.65;;;1.30;;
8187;SDS011;4135;49.184;9.722;2022-10-16T14:05:30;2.30;;;0.95;;
8187;SDS011;4135;49.184;9.722;2022-10-16T14:08:00;1.63;;;0.90;;
8187;SDS011;4135;49.184;9.722;2022-10-16T14:10:30;2.08;;;1.15;;
8187;SDS011;4135;49.184;9.722;2022-10-16T14:13:02;1.60;;;0.85;;
8187;SDS011;4135;49.184;9.722;2022-10-16T14:15:34;3.70;;;0.90;;
8187;SDS011;4135;49.184;9.722;2022-10-16T14:18:05;2.42;;;1.23;;
8187;SDS011;4135;49.184;9.722;2022-10-16T14:20:34;2.25;;;0.93;;
8187;SDS011;4135;49.184;9.722;2022-10-16T14:23:49;2.92;;;1.10;;
8187;SDS011;4135;49.184;9.722;2022-10-16T14:26:05;0.90;;;0.70;;
8187;SDS011;4135;49.184;9.722;2022-10-16T14:28:44;2.33;;;0.82;;
8187;SDS011;4135;49.184;9.722;2022-10-16T14:31:30;2.30;;;1.10;;
8187;SDS011;4135;49.184;9.722;2022-10-16T14:34:01;2.63;;;0.90;;
8187;SDS011;4135;49.184;9.722;2022-10-16T14:36:31;2.83;;;1.05;;
8187;SDS011;4135;49.184;9.722;2022-10-16T14:39:03;1.17;;;0.75;;
8187;SDS011;4135;49.184;9.722;2022-10-16T14:41:41;1.95;;;0.80;;
8187;SDS011;4135;49.184;9.722;2022-10-16T14:44:13;2.85;;;1.17;;
8187;SDS011;4135;49.184;9.722;2022-10-16T14:46:44;0.82;;;0.63;;
8187;SDS011;4135;49.184;9.722;2022-10-16T14:49:18;2.00;;;1.17;;
8187;SDS011;4135;49.184;9.722;2022-10-16T14:51:49;5.05;;;0.95;;
8187;SDS011;4135;49.184;9.722;2022-10-16T14:54:19;3.50;;;0.80;;
8187;SDS011;4135;49.184;9.722;2022-10-16T14:59:28;1.80;;;0.77;;
8187;SDS011;4135;49.184;9.722;2022-10-16T15:05:13;3.25;;;0.85;;
8187;SDS011;4135;49.184;9.722;2022-10-16T15:07:48;2.42;;;0.93;;
8187;SDS011;4135;49.184;9.722;2022-10-16T15:10:18;2.58;;;1.88;;
8187;SDS011;4135;49.184;9.722;2022-10-16T15:12:50;8.32;;;2.53;;
8187;SDS011;4135;49.184;9.722;2022-10-16T15:17:53;2.70;;;1.25;;
8187;SDS011;4135;49.184;9.722;2022-10-16T15:20:29;1.27;;;0.90;;
8187;SDS011;4135;49.184;9.722;2022-10-16T15:23:03;6.15;;;1.20;;
8187;SDS011;4135;49.184;9.722;2022-10-16T15:25:43;2.35;;;0.95;;
8187;SDS011;4135;49.184;9.722;2022-10-16T15:28:14;3.60;;;1.30;;
8187;SDS011;4135;49.184;9.722;2022-10-16T15:30:46;4.43;;;1.33;;
8187;SDS011;4135;49.184;9.722;2022-10-16T15:33:19;1.90;;;1.30;;
8187;SDS011;4135;49.184;9.722;2022-10-16T15:35:51;2.22;;;0.88;;
8187;SDS011;4135;49.184;9.722;2022-10-16T15:38:22;4.15;;;1.10;;
8187;SDS011;4135;49.184;9.722;2022-10-16T15:40:52;2.13;;;1.38;;
8187;SDS011;4135;49.184;9.722;2022-10-16T15:43:21;3.70;;;1.20;;
8187;SDS011;4135;49.184;9.722;2022-10-16T15:46:11;1.27;;;1.00;;
8187;SDS011;4135;49.184;9.722;2022-10-16T15:48:43;2.88;;;1.00;;
8187;SDS011;4135;49.184;9.722;2022-10-16T15:51:12;4.10;;;1.35;;
8187;SDS011;4135;49.184;9.722;2022-10-16T15:53:42;3.53;;;1.27;;
8187;SDS011;4135;49.184;9.722;2022-10-16T15:56:12;4.40;;;1.25;;
8187;SDS011;4135;49.184;9.722;2022-10-16T15:58:43;2.30;;;1.08;;
8187;SDS011;4135;49.184;9.722;2022-10-16T16:01:12;6.75;;;1.05;;
8187;SDS011;4135;49.184;9.722;2022-10-16T16:03:42;2.08;;;0.98;;
8187;SDS011;4135;49.184;9.722;2022-10-16T16:06:13;1.33;;;0.98;;
8187;SDS011;4135;49.184;9.722;2022-10-16T16:08:43;2.50;;;0.95;;
8187;SDS011;4135;49.184;9.722;2022-10-16T16:11:14;1.95;;;1.00;;
8187;SDS011;4135;49.184;9.722;2022-10-16T16:13:45;1.20;;;0.70;;
8187;SDS011;4135;49.184;9.722;2022-10-16T16:16:15;2.17;;;1.17;;
8187;SDS011;4135;49.184;9.722;2022-10-16T16:18:45;2.35;;;1.02;;
8187;SDS011;4135;49.184;9.722;2022-10-16T16:21:17;1.38;;;0.75;;
8187;SDS011;4135;49.184;9.722;2022-10-16T16:23:47;2.05;;;1.13;;
8187;SDS011;4135;49.184;9.722;2022-10-16T16:26:26;2.75;;;0.80;;
8187;SDS011;4135;49.184;9.722;2022-10-16T16:29:02;1.45;;;1.20;;
8187;SDS011;4135;49.184;9.722;2022-10-16T16:31:32;2.95;;;1.23;;
8187;SDS011;4135;49.184;9.722;2022-10-16T16:34:03;1.77;;;1.40;;
8187;SDS011;4135;49.184;9.722;2022-10-16T16:36:33;3.83;;;1.27;;
8187;SDS011;4135;49.184;9.722;2022-10-16T16:39:04;3.83;;;1.45;;
8187;SDS011;4135;49.184;9.722;2022-10-16T16:41:35;2.03;;;1.02;;
8187;SDS011;4135;49.184;9.722;2022-10-16T16:44:05;2.15;;;0.93;;
8187;SDS011;4135;49.184;9.722;2022-10-16T16:46:36;1.70;;;1.17;;
8187;SDS011;4135;49.184;9.722;2022-10-16T16:49:06;1.65;;;1.15;;
8187;SDS011;4135;49.184;9.722;2022-10-16T16:51:36;6.55;;;1.17;;
8187;SDS011;4135;49.184;9.722;2022-10-16T16:54:06;5.32;;;1.30;;
8187;SDS011;4135;49.184;9.722;2022-10-16T16:56:37;3.75;;;1.48;;
8187;SDS011;4135;49.184;9.722;2022-10-16T16:59:10;5.32;;;1.38;;
8187;SDS011;4135;49.184;9.722;2022-10-16T17:01:42;3.13;;;1.33;;
8187;SDS011;4135;49.184;9.722;2022-10-16T17:04:13;3.42;;;1.20;;
8187;SDS011;4135;49.184;9.722;2022-10-16T17:06:44;1.23;;;0.98;;
8187;SDS011;4135;49.184;9.722;2022-10-16T17:09:14;3.80;;;1.15;;
8187;SDS011;4135;49.184;9.722;2022-10-16T17:11:44;1.90;;;0.93;;
8187;SDS011;4135;49.184;9.722;2022-10-16T17:14:14;2.13;;;1.27;;
8187;SDS011;4135;49.184;9.722;2022-10-16T17:16:44;4.47;;;1.20;;
8187;SDS011;4135;49.184;9.722;2022-10-16T17:19:15;6.80;;;1.25;;
8187;SDS011;4135;49.184;9.722;2022-10-16T17:21:49;2.05;;;0.90;;
8187;SDS011;4135;49.184;9.722;2022-10-16T17:24:19;0.98;;;0.90;;
8187;SDS011;4135;49.184;9.722;2022-10-16T17:26:49;5.05;;;1.35;;
8187;SDS011;4135;49.184;9.722;2022-10-16T17:29:18;4.80;;;1.30;;
8187;SDS011;4135;49.184;9.722;2022-10-16T17:31:48;1.30;;;1.10;;